createdAt,value
2023-02-18T00:03:28.640Z,12.01
2023-02-18T00:07:37.313Z,12.02
2023-02-18T00:11:40.543Z,12.01
2023-02-18T00:15:43.658Z,12.03
2023-02-18T00:19:46.628Z,12.04
2023-02-18T00:23:50.930Z,12.08
2023-02-18T00:27:53.870Z,12.11
2023-02-18T00:31:56.887Z,12.12
2023-02-18T00:36:03.417Z,12.14
2023-02-18T00:40:09.502Z,12.13
2023-02-18T00:44:13.961Z,12.16
2023-02-18T00:48:16.968Z,12.17
2023-02-18T00:52:19.970Z,12.17
2023-02-18T00:56:24.570Z,12.18
2023-02-18T01:00:27.654Z,12.17
2023-02-18T01:04:30.703Z,12.17
2023-02-18T01:08:34.072Z,12.19
2023-02-18T01:12:38.495Z,12.19
2023-02-18T01:16:41.450Z,12.18
2023-02-18T01:20:46.137Z,12.19
2023-02-18T01:24:49.246Z,12.18
2023-02-18T01:28:53.652Z,12.19
2023-02-18T01:32:57.551Z,12.19
2023-02-18T01:37:00.684Z,12.18
2023-02-18T01:41:04.221Z,12.16
2023-02-18T01:45:54.664Z,12.14
2023-02-18T01:49:58.995Z,12.16
2023-02-18T01:54:07.140Z,12.15
2023-02-18T01:58:10.722Z,12.14
2023-02-18T02:02:17.209Z,12.12
2023-02-18T02:06:23.567Z,12.10
2023-02-18T02:10:35.955Z,12.12
2023-02-18T02:15:04.108Z,12.16
2023-02-18T02:19:30.917Z,12.17
2023-02-18T02:24:04.422Z,12.16
2023-02-18T02:28:46.036Z,12.15
2023-02-18T02:33:18.208Z,12.15
2023-02-18T02:37:32.611Z,12.14
2023-02-18T02:41:47.822Z,12.14
2023-02-18T02:45:57.784Z,12.15
2023-02-18T02:50:05.110Z,12.16
2023-02-18T02:54:19.241Z,12.21
2023-02-18T02:58:23.118Z,12.22
2023-02-18T03:02:38.763Z,12.23
2023-02-18T03:07:09.554Z,12.23
2023-02-18T03:11:17.067Z,12.28
2023-02-18T03:15:27.409Z,12.26
2023-02-18T03:19:35.127Z,12.25
2023-02-18T03:23:43.166Z,12.23
2023-02-18T03:27:53.686Z,12.18
2023-02-18T03:32:01.316Z,12.16
2023-02-18T03:36:05.374Z,12.11
2023-02-18T03:40:11.596Z,12.09
2023-02-18T03:44:15.950Z,12.06
2023-02-18T03:48:19.052Z,12.07
2023-02-18T03:52:22.005Z,12.04
2023-02-18T03:56:26.285Z,12.02
2023-02-18T04:00:30.698Z,12.03
2023-02-18T04:04:33.915Z,12.01
2023-02-18T04:08:37.025Z,11.97
2023-02-18T04:12:41.545Z,11.94
2023-02-18T04:16:46.008Z,11.90
2023-02-18T04:20:49.308Z,11.88
2023-02-18T04:24:53.458Z,11.88
2023-02-18T04:28:56.402Z,11.87
2023-02-18T04:33:01.379Z,11.85
2023-02-18T04:37:04.337Z,11.86
2023-02-18T04:41:07.324Z,11.86
2023-02-18T04:45:10.669Z,11.86
2023-02-18T04:49:15.078Z,11.88
2023-02-18T04:53:18.063Z,11.87
2023-02-18T04:57:21.008Z,11.91
2023-02-18T05:01:24.019Z,11.92
2023-02-18T05:05:28.598Z,11.94
2023-02-18T05:09:31.577Z,11.92
2023-02-18T05:13:34.709Z,11.91
2023-02-18T05:17:37.674Z,11.89
2023-02-18T05:21:42.140Z,11.88
2023-02-18T05:25:45.255Z,11.87
2023-02-18T05:29:48.185Z,11.87
2023-02-18T05:33:51.328Z,11.88
2023-02-18T05:37:55.721Z,11.88
2023-02-18T05:41:58.694Z,11.85
2023-02-18T05:46:01.725Z,11.86
2023-02-18T05:50:05.767Z,11.84
2023-02-18T05:54:10.257Z,11.85
2023-02-18T05:58:13.719Z,11.83
2023-02-18T06:02:16.697Z,11.83
2023-02-18T06:06:19.878Z,11.82
2023-02-18T06:10:24.296Z,11.81
2023-02-18T06:14:27.387Z,11.82
2023-02-18T06:18:30.367Z,11.81
2023-02-18T06:22:33.349Z,11.83
2023-02-18T06:26:37.692Z,11.83
2023-02-18T06:30:40.728Z,11.84
2023-02-18T06:34:44.353Z,11.84
2023-02-18T06:38:47.381Z,11.86
2023-02-18T06:42:51.731Z,11.86
2023-02-18T06:46:54.816Z,11.85
2023-02-18T06:50:58.433Z,11.87
2023-02-18T06:55:01.537Z,11.87
2023-02-18T06:59:05.959Z,11.89
2023-02-18T07:03:09.540Z,11.91
2023-02-18T07:07:12.663Z,11.93
2023-02-18T07:11:15.659Z,11.96
2023-02-18T07:15:24.231Z,11.97
2023-02-18T07:19:27.257Z,12.00
2023-02-18T07:23:30.234Z,12.03
2023-02-18T07:27:33.233Z,12.06
2023-02-18T07:31:39.157Z,12.11
2023-02-18T07:35:42.354Z,12.14
2023-02-18T07:39:46.064Z,12.15
2023-02-18T07:43:49.298Z,12.17
2023-02-18T07:47:53.661Z,12.20
2023-02-18T07:51:56.818Z,12.22
2023-02-18T07:56:00.318Z,12.25
2023-02-18T08:00:03.504Z,12.26
2023-02-18T08:04:17.254Z,12.29
2023-02-18T08:08:22.974Z,12.29
2023-02-18T08:12:26.046Z,12.29
2023-02-18T08:16:29.645Z,12.30
2023-02-18T08:20:37.742Z,12.37
2023-02-18T08:24:40.982Z,12.42
2023-02-18T08:28:44.471Z,12.50
2023-02-18T08:32:47.442Z,12.58
2023-02-18T08:36:54.673Z,12.66
2023-02-18T08:41:03.046Z,12.74
2023-02-18T08:45:06.432Z,12.78
2023-02-18T08:49:09.753Z,12.81
2023-02-18T08:53:14.177Z,12.81
2023-02-18T08:57:17.314Z,12.82
2023-02-18T09:01:20.952Z,12.85
2023-02-18T09:05:23.987Z,12.88
2023-02-18T09:09:31.811Z,12.87
2023-02-18T09:13:35.217Z,12.93
2023-02-18T09:17:38.880Z,12.99
2023-02-18T09:21:42.027Z,13.09
2023-02-18T09:25:46.371Z,13.16
2023-02-18T09:29:50.857Z,13.17
2023-02-18T09:33:56.513Z,13.20
2023-02-18T09:37:59.689Z,13.28
2023-02-18T09:42:07.498Z,13.34
2023-02-18T09:46:19.683Z,13.41
2023-02-18T09:50:38.522Z,13.40
2023-02-18T09:54:44.939Z,13.41
2023-02-18T09:58:50.679Z,13.37
2023-02-18T10:02:59.017Z,13.27
2023-02-18T10:07:03.796Z,13.20
2023-02-18T10:11:16.593Z,13.17
2023-02-18T10:15:25.208Z,13.13
2023-02-18T10:19:33.460Z,13.13
2023-02-18T10:23:39.111Z,13.13
2023-02-18T10:27:42.353Z,13.09
2023-02-18T10:31:52.853Z,13.07
2023-02-18T10:36:03.982Z,13.07
2023-02-18T10:40:18.311Z,13.09
2023-02-18T10:44:31.860Z,13.07
2023-02-18T10:48:52.297Z,13.02
2023-02-18T10:53:00.822Z,13.01
2023-02-18T10:57:04.878Z,13.00
2023-02-18T11:01:15.737Z,12.98
2023-02-18T11:05:25.122Z,12.98
2023-02-18T11:09:32.994Z,12.99
2023-02-18T11:13:36.156Z,13.00
2023-02-18T11:17:39.248Z,13.00
2023-02-18T11:21:43.599Z,13.00
2023-02-18T11:26:02.361Z,13.00
2023-02-18T11:30:08.705Z,12.98
2023-02-18T11:34:18.436Z,13.00
2023-02-18T11:38:29.816Z,13.03
2023-02-18T11:42:33.039Z,13.06
2023-02-18T11:46:36.124Z,13.07
2023-02-18T11:50:39.112Z,13.09
2023-02-18T11:54:43.573Z,13.13
2023-02-18T11:58:49.786Z,13.17
2023-02-18T12:02:55.366Z,13.21
2023-02-18T12:07:14.352Z,13.23
2023-02-18T12:11:28.433Z,13.27
2023-02-18T12:15:46.158Z,13.28
2023-02-18T12:20:22.144Z,13.31
2023-02-18T12:24:41.990Z,13.31
2023-02-18T12:28:57.302Z,13.32
2023-02-18T12:33:09.286Z,13.37
2023-02-18T12:37:35.347Z,13.47
2023-02-18T12:42:03.022Z,13.63
2023-02-18T12:46:38.964Z,13.87
2023-02-18T12:50:53.390Z,13.98
2023-02-18T12:55:17.298Z,14.06
2023-02-18T12:59:45.319Z,14.09
2023-02-18T13:04:25.359Z,14.09
2023-02-18T13:08:43.549Z,14.11
2023-02-18T13:12:52.007Z,14.12
2023-02-18T13:16:58.812Z,14.13
2023-02-18T13:21:06.109Z,14.17
2023-02-18T13:25:15.488Z,14.16
2023-02-18T13:29:27.825Z,14.19
2023-02-18T13:33:41.276Z,14.23
2023-02-18T13:38:00.103Z,14.25
2023-02-18T13:42:28.680Z,14.28
2023-02-18T13:46:31.657Z,14.34
2023-02-18T13:50:43.859Z,14.46
2023-02-18T13:54:51.486Z,14.59
2023-02-18T13:59:02.540Z,14.69
2023-02-18T14:03:23.171Z,14.76
2023-02-18T14:07:50.262Z,14.79
2023-02-18T14:11:56.617Z,14.79
2023-02-18T14:16:02.054Z,14.83
2023-02-18T14:20:42.684Z,14.91
2023-02-18T14:25:17.026Z,14.97
2023-02-18T14:29:29.846Z,15.02
2023-02-18T14:33:37.160Z,15.12
2023-02-18T14:38:24.705Z,15.10
2023-02-18T14:42:39.081Z,15.13
2023-02-18T14:46:55.473Z,15.13
2023-02-18T14:51:01.218Z,15.11
2023-02-18T14:55:08.226Z,15.09
2023-02-18T14:59:14.985Z,15.05
2023-02-18T15:03:20.471Z,14.99
2023-02-18T15:07:24.824Z,14.90
2023-02-18T15:11:37.565Z,14.86
2023-02-18T15:15:42.245Z,14.82
2023-02-18T15:19:50.302Z,14.76
2023-02-18T15:23:55.110Z,14.70
2023-02-18T15:27:58.151Z,14.65
2023-02-18T15:32:01.897Z,14.61
2023-02-18T15:36:07.105Z,14.55
2023-02-18T15:40:16.472Z,14.49
2023-02-18T15:44:23.833Z,14.46
2023-02-18T15:48:33.652Z,14.40
2023-02-18T15:52:40.045Z,14.34
2023-02-18T15:56:46.285Z,14.29
2023-02-18T16:00:53.494Z,14.23
2023-02-18T16:05:00.523Z,14.17
2023-02-18T16:09:08.928Z,14.11
2023-02-18T16:13:16.078Z,14.08
2023-02-18T16:17:23.528Z,13.99
2023-02-18T16:21:39.857Z,13.95
2023-02-18T16:25:45.552Z,13.88
2023-02-18T16:29:52.494Z,13.84
2023-02-18T16:33:56.856Z,13.75
2023-02-18T16:38:00.035Z,13.70
2023-02-18T16:42:03.367Z,13.66
2023-02-18T16:46:15.477Z,13.57
2023-02-18T16:50:22.044Z,13.53
2023-02-18T16:54:24.996Z,13.45
2023-02-18T16:58:27.957Z,13.40
2023-02-18T17:02:32.502Z,13.38
2023-02-18T17:06:36.878Z,13.37
2023-02-18T17:10:39.902Z,13.34
2023-02-18T17:14:43.795Z,13.30
2023-02-18T17:18:47.339Z,13.26
2023-02-18T17:22:51.662Z,13.25
2023-02-18T17:26:54.747Z,13.21
2023-02-18T17:30:59.557Z,13.20
2023-02-18T17:35:02.543Z,13.19
2023-02-18T17:39:14.240Z,13.18
2023-02-18T17:43:20.487Z,13.18
2023-02-18T17:47:23.534Z,13.19
2023-02-18T17:51:30.306Z,13.20
2023-02-18T17:55:36.898Z,13.21
2023-02-18T17:59:42.027Z,13.22
2023-02-18T18:03:45.471Z,13.23
2023-02-18T18:07:49.905Z,13.22
2023-02-18T18:11:54.411Z,13.21
2023-02-18T18:15:58.034Z,13.23
2023-02-18T18:20:01.434Z,13.29
2023-02-18T18:24:05.354Z,13.28
2023-02-18T18:28:10.295Z,13.28
2023-02-18T18:32:13.335Z,13.27
2023-02-18T18:36:17.178Z,13.25
2023-02-18T18:40:22.029Z,13.23
2023-02-18T18:44:26.359Z,13.21
2023-02-18T18:48:29.447Z,13.18
2023-02-18T18:52:32.416Z,13.14
2023-02-18T18:56:37.837Z,13.15
2023-02-18T19:00:45.976Z,13.13
2023-02-18T19:04:48.960Z,13.10
2023-02-18T19:08:52.016Z,13.06
2023-02-18T19:12:56.000Z,13.08
2023-02-18T19:17:00.691Z,13.06
2023-02-18T19:21:04.716Z,13.03
2023-02-18T19:25:08.348Z,13.01
2023-02-18T19:29:11.468Z,12.99
2023-02-18T19:33:16.175Z,13.00
2023-02-18T19:37:19.282Z,13.02
2023-02-18T19:41:22.379Z,13.02
2023-02-18T19:45:25.747Z,13.06
2023-02-18T19:49:30.191Z,13.10
2023-02-18T19:53:33.197Z,13.10
2023-02-18T19:57:36.193Z,13.07
2023-02-18T20:01:39.240Z,13.01
2023-02-18T20:05:43.657Z,13.02
2023-02-18T20:09:46.867Z,13.00
2023-02-18T20:13:49.835Z,12.98
2023-02-18T20:17:52.871Z,12.94
2023-02-18T20:21:57.402Z,12.90
2023-02-18T20:26:04.041Z,12.87
2023-02-18T20:30:09.551Z,12.87
2023-02-18T20:34:12.656Z,12.83
2023-02-18T20:38:18.779Z,12.80
2023-02-18T20:42:21.852Z,12.79
2023-02-18T20:46:25.044Z,12.75
2023-02-18T20:50:28.071Z,12.69
2023-02-18T20:54:32.371Z,12.67
2023-02-18T20:58:35.658Z,12.64
2023-02-18T21:02:38.620Z,12.62
2023-02-18T21:06:41.709Z,12.59
2023-02-18T21:10:46.014Z,12.55
2023-02-18T21:14:48.935Z,12.59
2023-02-18T21:18:52.465Z,12.53
2023-02-18T21:22:56.392Z,12.51
2023-02-18T21:27:00.761Z,12.47
2023-02-18T21:31:03.897Z,12.45
2023-02-18T21:35:07.925Z,12.44
2023-02-18T21:39:11.724Z,12.41
2023-02-18T21:43:16.177Z,12.35
2023-02-18T21:47:19.127Z,12.34
2023-02-18T21:51:36.042Z,12.28
2023-02-18T21:55:39.035Z,12.24
2023-02-18T21:59:45.303Z,12.19
2023-02-18T22:03:48.330Z,12.16
2023-02-18T22:07:51.285Z,12.12
2023-02-18T22:11:54.441Z,12.08
2023-02-18T22:15:58.854Z,12.05
2023-02-18T22:20:01.853Z,12.03
2023-02-18T22:24:06.264Z,11.99
2023-02-18T22:28:09.241Z,11.99
2023-02-18T22:32:13.816Z,11.96
2023-02-18T22:36:16.811Z,11.95
2023-02-18T22:40:20.122Z,11.94
2023-02-18T22:44:24.191Z,11.96
2023-02-18T22:48:28.639Z,11.94
2023-02-18T22:52:31.626Z,11.92
2023-02-18T22:56:35.031Z,11.92
2023-02-18T23:00:38.014Z,11.88
2023-02-18T23:04:42.740Z,11.84
2023-02-18T23:08:45.996Z,11.80
2023-02-18T23:12:48.967Z,11.75
2023-02-18T23:17:12.210Z,11.74
2023-02-18T23:21:21.255Z,11.70
2023-02-18T23:25:24.264Z,11.62
2023-02-18T23:29:27.523Z,11.56
2023-02-18T23:33:30.527Z,11.54
2023-02-18T23:37:51.254Z,11.54
2023-02-18T23:41:54.312Z,11.48
2023-02-18T23:45:57.512Z,11.44
2023-02-18T23:50:00.678Z,11.38
2023-02-18T23:54:05.397Z,11.30
2023-02-18T23:58:08.578Z,11.25
